sensor_id;sensor_type;location;lat;lon;timestamp;pressure;altitude;pressure_sealevel;temperature
11792;BMP180;5953;52.372;9.918;2023-01-04T00:01:21;101480.00;;;11.10
11792;BMP180;5953;52.372;9.918;2023-01-04T00:03:49;101470.00;;;11.00
11792;BMP180;5953;52.372;9.918;2023-01-04T00:06:18;101482.00;;;10.70
11792;BMP180;5953;52.372;9.918;2023-01-04T00:08:46;101466.00;;;11.20
11792;BMP180;5953;52.372;9.918;2023-01-04T00:11:15;101476.00;;;11.30
11792;BMP180;5953;52.372;9.918;2023-01-04T00:13:46;101458.00;;;11.20
11792;BMP180;5953;52.372;9.918;2023-01-04T00:16:16;101445.00;;;11.20
11792;BMP180;5953;52.372;9.918;2023-01-04T00:18:44;101452.00;;;11.40
11792;BMP180;5953;52.372;9.918;2023-01-04T00:21:14;101454.00;;;11.30
11792;BMP180;5953;52.372;9.918;2023-01-04T00:23:44;101429.00;;;11.30
11792;BMP180;5953;52.372;9.918;2023-01-04T00:26:14;101382.00;;;11.40
11792;BMP180;5953;52.372;9.918;2023-01-04T00:28:42;101422.00;;;11.10
11792;BMP180;5953;52.372;9.918;2023-01-04T00:31:21;101411.00;;;11.20
11792;BMP180;5953;52.372;9.918;2023-01-04T00:33:49;101427.00;;;11.30
11792;BMP180;5953;52.372;9.918;2023-01-04T00:36:18;101429.00;;;11.10
11792;BMP180;5953;52.372;9.918;2023-01-04T00:38:46;101428.00;;;10.50
11792;BMP180;5953;52.372;9.918;2023-01-04T00:41:37;101415.00;;;10.70
11792;BMP180;5953;52.372;9.918;2023-01-04T00:44:25;101393.00;;;10.90
11792;BMP180;5953;52.372;9.918;2023-01-04T00:46:55;101414.00;;;10.80
11792;BMP180;5953;52.372;9.918;2023-01-04T00:49:23;101391.00;;;10.70
11792;BMP180;5953;52.372;9.918;2023-01-04T00:51:52;101384.00;;;10.80
11792;BMP180;5953;52.372;9.918;2023-01-04T00:54:20;101375.00;;;10.60
11792;BMP180;5953;52.372;9.918;2023-01-04T00:56:48;101371.00;;;10.80
11792;BMP180;5953;52.372;9.918;2023-01-04T00:59:18;101351.00;;;10.70
11792;BMP180;5953;52.372;9.918;2023-01-04T01:01:46;101352.00;;;10.70
11792;BMP180;5953;52.372;9.918;2023-01-04T01:04:18;101349.00;;;10.70
11792;BMP180;5953;52.372;9.918;2023-01-04T01:06:46;101313.00;;;10.70
11792;BMP180;5953;52.372;9.918;2023-01-04T01:09:14;101339.00;;;10.50
11792;BMP180;5953;52.372;9.918;2023-01-04T01:11:42;101308.00;;;10.40
11792;BMP180;5953;52.372;9.918;2023-01-04T01:14:15;101328.00;;;10.50
11792;BMP180;5953;52.372;9.918;2023-01-04T01:16:43;101340.00;;;10.60
11792;BMP180;5953;52.372;9.918;2023-01-04T01:19:25;101315.00;;;10.60
11792;BMP180;5953;52.372;9.918;2023-01-04T01:21:53;101320.00;;;10.60
11792;BMP180;5953;52.372;9.918;2023-01-04T01:24:22;101324.00;;;10.70
11792;BMP180;5953;52.372;9.918;2023-01-04T01:26:50;101325.00;;;10.70
11792;BMP180;5953;52.372;9.918;2023-01-04T01:29:18;101326.00;;;10.50
11792;BMP180;5953;52.372;9.918;2023-01-04T01:31:46;101305.00;;;10.40
11792;BMP180;5953;52.372;9.918;2023-01-04T01:34:14;101317.00;;;10.30
11792;BMP180;5953;52.372;9.918;2023-01-04T01:36:43;101314.00;;;10.60
11792;BMP180;5953;52.372;9.918;2023-01-04T01:39:11;101309.00;;;10.60
11792;BMP180;5953;52.372;9.918;2023-01-04T01:41:39;101282.00;;;10.60
11792;BMP180;5953;52.372;9.918;2023-01-04T01:47:11;101293.00;;;10.50
11792;BMP180;5953;52.372;9.918;2023-01-04T01:49:41;101287.00;;;10.50
11792;BMP180;5953;52.372;9.918;2023-01-04T01:52:13;101271.00;;;10.50
11792;BMP180;5953;52.372;9.918;2023-01-04T01:54:43;101269.00;;;10.20
11792;BMP180;5953;52.372;9.918;2023-01-04T01:57:14;101243.00;;;10.50
11792;BMP180;5953;52.372;9.918;2023-01-04T01:59:45;101269.00;;;10.40
11792;BMP180;5953;52.372;9.918;2023-01-04T02:02:14;101256.00;;;10.30
11792;BMP180;5953;52.372;9.918;2023-01-04T02:04:46;101222.00;;;10.40
11792;BMP180;5953;52.372;9.918;2023-01-04T02:07:22;101223.00;;;10.50
11792;BMP180;5953;52.372;9.918;2023-01-04T02:09:51;101218.00;;;10.40
11792;BMP180;5953;52.372;9.918;2023-01-04T02:12:20;101216.00;;;10.40
11792;BMP180;5953;52.372;9.918;2023-01-04T02:14:50;101206.00;;;10.30
11792;BMP180;5953;52.372;9.918;2023-01-04T02:17:24;101207.00;;;10.40
11792;BMP180;5953;52.372;9.918;2023-01-04T02:20:15;101189.00;;;10.50
11792;BMP180;5953;52.372;9.918;2023-01-04T02:23:06;101197.00;;;10.20
11792;BMP180;5953;52.372;9.918;2023-01-04T02:28:45;101185.00;;;10.40
11792;BMP180;5953;52.372;9.918;2023-01-04T02:31:27;101164.00;;;10.50
11792;BMP180;5953;52.372;9.918;2023-01-04T02:34:01;101182.00;;;10.40
11792;BMP180;5953;52.372;9.918;2023-01-04T02:36:34;101142.00;;;10.60
11792;BMP180;5953;52.372;9.918;2023-01-04T02:39:12;101124.00;;;10.50
11792;BMP180;5953;52.372;9.918;2023-01-04T02:41:46;101123.00;;;10.60
11792;BMP180;5953;52.372;9.918;2023-01-04T02:44:18;101095.00;;;10.70
11792;BMP180;5953;52.372;9.918;2023-01-04T02:47:10;101088.00;;;10.40
11792;BMP180;5953;52.372;9.918;2023-01-04T02:49:39;101103.00;;;10.60
11792;BMP180;5953;52.372;9.918;2023-01-04T02:52:30;101113.00;;;10.60
11792;BMP180;5953;52.372;9.918;2023-01-04T02:55:00;101080.00;;;10.60
11792;BMP180;5953;52.372;9.918;2023-01-04T02:57:40;101075.00;;;10.70
11792;BMP180;5953;52.372;9.918;2023-01-04T03:00:19;101118.00;;;10.50
11792;BMP180;5953;52.372;9.918;2023-01-04T03:03:02;101085.00;;;10.60
11792;BMP180;5953;52.372;9.918;2023-01-04T03:05:59;101101.00;;;10.80
11792;BMP180;5953;52.372;9.918;2023-01-04T03:08:50;101064.00;;;10.60
11792;BMP180;5953;52.372;9.918;2023-01-04T03:11:19;101069.00;;;10.80
11792;BMP180;5953;52.372;9.918;2023-01-04T03:14:08;101058.00;;;10.90
11792;BMP180;5953;52.372;9.918;2023-01-04T03:16:59;101078.00;;;10.80
11792;BMP180;5953;52.372;9.918;2023-01-04T03:19:30;101071.00;;;10.90
11792;BMP180;5953;52.372;9.918;2023-01-04T03:22:23;101038.00;;;10.90
11792;BMP180;5953;52.372;9.918;2023-01-04T03:25:11;101048.00;;;10.90
11792;BMP180;5953;52.372;9.918;2023-01-04T03:27:59;101043.00;;;11.00
11792;BMP180;5953;52.372;9.918;2023-01-04T03:30:50;101028.00;;;11.20
11792;BMP180;5953;52.372;9.918;2023-01-04T03:33:36;101012.00;;;11.20
11792;BMP180;5953;52.372;9.918;2023-01-04T03:36:31;101010.00;;;11.20
11792;BMP180;5953;52.372;9.918;2023-01-04T03:39:07;101006.00;;;11.20
11792;BMP180;5953;52.372;9.918;2023-01-04T03:41:58;100989.00;;;11.30
11792;BMP180;5953;52.372;9.918;2023-01-04T03:44:48;100992.00;;;11.30
11792;BMP180;5953;52.372;9.918;2023-01-04T03:47:41;100987.00;;;11.10
11792;BMP180;5953;52.372;9.918;2023-01-04T03:50:34;100975.00;;;11.40
11792;BMP180;5953;52.372;9.918;2023-01-04T03:53:07;100945.00;;;11.40
11792;BMP180;5953;52.372;9.918;2023-01-04T03:55:36;100962.00;;;11.40
11792;BMP180;5953;52.372;9.918;2023-01-04T03:58:06;100928.00;;;11.40
11792;BMP180;5953;52.372;9.918;2023-01-04T04:00:34;100939.00;;;11.30
11792;BMP180;5953;52.372;9.918;2023-01-04T04:03:04;100940.00;;;11.10
11792;BMP180;5953;52.372;9.918;2023-01-04T04:05:37;100938.00;;;11.00
11792;BMP180;5953;52.372;9.918;2023-01-04T04:08:24;100927.00;;;11.10
11792;BMP180;5953;52.372;9.918;2023-01-04T04:10:57;100916.00;;;11.10
11792;BMP180;5953;52.372;9.918;2023-01-04T04:13:47;100914.00;;;11.50
11792;BMP180;5953;52.372;9.918;2023-01-04T04:16:16;100921.00;;;11.30
11792;BMP180;5953;52.372;9.918;2023-01-04T04:18:44;100868.00;;;11.10
11792;BMP180;5953;52.372;9.918;2023-01-04T04:21:13;100872.00;;;11.30
11792;BMP180;5953;52.372;9.918;2023-01-04T04:23:43;100925.00;;;11.20
11792;BMP180;5953;52.372;9.918;2023-01-04T04:26:12;100858.00;;;11.10
11792;BMP180;5953;52.372;9.918;2023-01-04T04:28:47;100903.00;;;11.40
11792;BMP180;5953;52.372;9.918;2023-01-04T04:31:20;100903.00;;;10.80
11792;BMP180;5953;52.372;9.918;2023-01-04T04:34:02;100891.00;;;10.90
11792;BMP180;5953;52.372;9.918;2023-01-04T04:39:43;100885.00;;;11.10
11792;BMP180;5953;52.372;9.918;2023-01-04T04:42:20;100857.00;;;10.80
11792;BMP180;5953;52.372;9.918;2023-01-04T04:44:55;100851.00;;;11.10
11792;BMP180;5953;52.372;9.918;2023-01-04T04:47:26;100832.00;;;11.10
11792;BMP180;5953;52.372;9.918;2023-01-04T04:50:05;100869.00;;;11.00
11792;BMP180;5953;52.372;9.918;2023-01-04T04:52:33;100825.00;;;11.10
11792;BMP180;5953;52.372;9.918;2023-01-04T04:55:07;100867.00;;;10.90
11792;BMP180;5953;52.372;9.918;2023-01-04T04:57:46;100861.00;;;11.00
11792;BMP180;5953;52.372;9.918;2023-01-04T05:00:15;100844.00;;;10.90
11792;BMP180;5953;52.372;9.918;2023-01-04T05:02:52;100839.00;;;11.10
11792;BMP180;5953;52.372;9.918;2023-01-04T05:05:28;100844.00;;;11.20
11792;BMP180;5953;52.372;9.918;2023-01-04T05:07:59;100829.00;;;10.90
11792;BMP180;5953;52.372;9.918;2023-01-04T05:10:34;100800.00;;;10.90
11792;BMP180;5953;52.372;9.918;2023-01-04T05:13:08;100812.00;;;11.20
11792;BMP180;5953;52.372;9.918;2023-01-04T05:15:40;100801.00;;;10.90
11792;BMP180;5953;52.372;9.918;2023-01-04T05:18:11;100803.00;;;10.80
11792;BMP180;5953;52.372;9.918;2023-01-04T05:20:40;100801.00;;;11.30
11792;BMP180;5953;52.372;9.918;2023-01-04T05:23:13;100745.00;;;11.20
11792;BMP180;5953;52.372;9.918;2023-01-04T05:25:54;100776.00;;;11.00
11792;BMP180;5953;52.372;9.918;2023-01-04T05:28:27;100785.00;;;11.40
11792;BMP180;5953;52.372;9.918;2023-01-04T05:30:56;100778.00;;;11.40
11792;BMP180;5953;52.372;9.918;2023-01-04T05:33:29;100768.00;;;11.40
11792;BMP180;5953;52.372;9.918;2023-01-04T05:36:03;100756.00;;;11.10
11792;BMP180;5953;52.372;9.918;2023-01-04T05:38:55;100743.00;;;11.30
11792;BMP180;5953;52.372;9.918;2023-01-04T05:41:40;100747.00;;;11.50
11792;BMP180;5953;52.372;9.918;2023-01-04T05:44:26;100753.00;;;11.20
11792;BMP180;5953;52.372;9.918;2023-01-04T05:47:04;100716.00;;;11.50
11792;BMP180;5953;52.372;9.918;2023-01-04T05:49:54;100729.00;;;11.20
11792;BMP180;5953;52.372;9.918;2023-01-04T05:52:35;100681.00;;;11.30
11792;BMP180;5953;52.372;9.918;2023-01-04T05:55:05;100715.00;;;11.30
11792;BMP180;5953;52.372;9.918;2023-01-04T05:57:46;100662.00;;;11.30
11792;BMP180;5953;52.372;9.918;2023-01-04T06:04:07;100693.00;;;11.50
11792;BMP180;5953;52.372;9.918;2023-01-04T06:07:16;100686.00;;;11.40
11792;BMP180;5953;52.372;9.918;2023-01-04T06:10:32;100625.00;;;11.50
11792;BMP180;5953;52.372;9.918;2023-01-04T06:14:00;100673.00;;;11.30
11792;BMP180;5953;52.372;9.918;2023-01-04T06:17:22;100669.00;;;11.20
11792;BMP180;5953;52.372;9.918;2023-01-04T06:21:24;100666.00;;;11.00
11792;BMP180;5953;52.372;9.918;2023-01-04T06:24:13;100659.00;;;11.40
11792;BMP180;5953;52.372;9.918;2023-01-04T06:27:13;100662.00;;;11.40
11792;BMP180;5953;52.372;9.918;2023-01-04T06:30:14;100641.00;;;11.20
11792;BMP180;5953;52.372;9.918;2023-01-04T06:33:20;100595.00;;;11.10
11792;BMP180;5953;52.372;9.918;2023-01-04T06:36:09;100613.00;;;10.80
11792;BMP180;5953;52.372;9.918;2023-01-04T06:38:48;100636.00;;;11.40
11792;BMP180;5953;52.372;9.918;2023-01-04T06:41:20;100575.00;;;11.40
11792;BMP180;5953;52.372;9.918;2023-01-04T06:44:11;100587.00;;;11.30
11792;BMP180;5953;52.372;9.918;2023-01-04T06:46:57;100625.00;;;10.60
11792;BMP180;5953;52.372;9.918;2023-01-04T06:49:29;100574.00;;;11.50
11792;BMP180;5953;52.372;9.918;2023-01-04T06:51:58;100586.00;;;11.40
11792;BMP180;5953;52.372;9.918;2023-01-04T06:54:32;100580.00;;;11.50
11792;BMP180;5953;52.372;9.918;2023-01-04T06:57:03;100605.00;;;11.10
11792;BMP180;5953;52.372;9.918;2023-01-04T06:59:40;100550.00;;;11.70
11792;BMP180;5953;52.372;9.918;2023-01-04T07:02:12;100564.00;;;11.60
11792;BMP180;5953;52.372;9.918;2023-01-04T07:04:44;100558.00;;;11.90
11792;BMP180;5953;52.372;9.918;2023-01-04T07:07:12;100598.00;;;11.80
11792;BMP180;5953;52.372;9.918;2023-01-04T07:09:40;100591.00;;;11.80
11792;BMP180;5953;52.372;9.918;2023-01-04T07:12:13;100578.00;;;11.10
11792;BMP180;5953;52.372;9.918;2023-01-04T07:15:11;100588.00;;;11.70
11792;BMP180;5953;52.372;9.918;2023-01-04T07:18:06;100581.00;;;11.80
11792;BMP180;5953;52.372;9.918;2023-01-04T07:20:35;100601.00;;;11.70
11792;BMP180;5953;52.372;9.918;2023-01-04T07:23:06;100591.00;;;12.00
11792;BMP180;5953;52.372;9.918;2023-01-04T07:25:35;100581.00;;;11.70
11792;BMP180;5953;52.372;9.918;2023-01-04T07:28:03;100553.00;;;11.10
11792;BMP180;5953;52.372;9.918;2023-01-04T07:30:32;100572.00;;;11.60
11792;BMP180;5953;52.372;9.918;2023-01-04T07:33:00;100581.00;;;11.50
11792;BMP180;5953;52.372;9.918;2023-01-04T07:35:30;100596.00;;;11.80
11792;BMP180;5953;52.372;9.918;2023-01-04T07:37:59;100616.00;;;11.30
11792;BMP180;5953;52.372;9.918;2023-01-04T07:40:30;100557.00;;;11.80
11792;BMP180;5953;52.372;9.918;2023-01-04T07:43:01;100592.00;;;11.70
11792;BMP180;5953;52.372;9.918;2023-01-04T07:45:30;100583.00;;;12.00
11792;BMP180;5953;52.372;9.918;2023-01-04T07:48:02;100535.00;;;12.20
11792;BMP180;5953;52.372;9.918;2023-01-04T07:50:40;100561.00;;;12.00
11792;BMP180;5953;52.372;9.918;2023-01-04T07:53:18;100568.00;;;12.10
11792;BMP180;5953;52.372;9.918;2023-01-04T07:55:56;100557.00;;;11.80
11792;BMP180;5953;52.372;9.918;2023-01-04T07:58:33;100549.00;;;12.40
11792;BMP180;5953;52.372;9.918;2023-01-04T08:01:18;100591.00;;;12.30
11792;BMP180;5953;52.372;9.918;2023-01-04T08:03:51;100552.00;;;12.10
11792;BMP180;5953;52.372;9.918;2023-01-04T08:06:22;100586.00;;;12.20
11792;BMP180;5953;52.372;9.918;2023-01-04T08:08:51;100565.00;;;11.60
11792;BMP180;5953;52.372;9.918;2023-01-04T08:11:20;100559.00;;;12.00
11792;BMP180;5953;52.372;9.918;2023-01-04T08:13:52;100575.00;;;12.30
11792;BMP180;5953;52.372;9.918;2023-01-04T08:16:25;100567.00;;;12.10
11792;BMP180;5953;52.372;9.918;2023-01-04T08:18:55;100565.00;;;12.30
11792;BMP180;5953;52.372;9.918;2023-01-04T08:21:26;100586.00;;;12.10
11792;BMP180;5953;52.372;9.918;2023-01-04T08:23:57;100566.00;;;12.10
11792;BMP180;5953;52.372;9.918;2023-01-04T08:26:26;100564.00;;;12.00
11792;BMP180;5953;52.372;9.918;2023-01-04T08:29:00;100560.00;;;11.80
11792;BMP180;5953;52.372;9.918;2023-01-04T08:31:34;100606.00;;;12.20
11792;BMP180;5953;52.372;9.918;2023-01-04T08:34:08;100615.00;;;12.10
11792;BMP180;5953;52.372;9.918;2023-01-04T08:36:46;100618.00;;;12.20
11792;BMP180;5953;52.372;9.918;2023-01-04T08:39:18;100577.00;;;12.20
11792;BMP180;5953;52.372;9.918;2023-01-04T08:41:47;100618.00;;;12.30
11792;BMP180;5953;52.372;9.918;2023-01-04T08:44:33;100626.00;;;12.10
11792;BMP180;5953;52.372;9.918;2023-01-04T08:47:01;100583.00;;;12.10
11792;BMP180;5953;52.372;9.918;2023-01-04T08:49:32;100606.00;;;12.20
11792;BMP180;5953;52.372;9.918;2023-01-04T08:52:02;100573.00;;;11.90
11792;BMP180;5953;52.372;9.918;2023-01-04T08:54:44;100582.00;;;12.00
11792;BMP180;5953;52.372;9.918;2023-01-04T08:57:23;100589.00;;;12.10
11792;BMP180;5953;52.372;9.918;2023-01-04T09:00:01;100590.00;;;11.40
11792;BMP180;5953;52.372;9.918;2023-01-04T09:02:34;100573.00;;;11.80
11792;BMP180;5953;52.372;9.918;2023-01-04T09:05:12;100541.00;;;11.70
11792;BMP180;5953;52.372;9.918;2023-01-04T09:08:12;100508.00;;;12.20
11792;BMP180;5953;52.372;9.918;2023-01-04T09:10:43;100581.00;;;12.00
11792;BMP180;5953;52.372;9.918;2023-01-04T09:13:31;100529.00;;;12.20
11792;BMP180;5953;52.372;9.918;2023-01-04T09:16:33;100570.00;;;12.20
11792;BMP180;5953;52.372;9.918;2023-01-04T09:19:02;100589.00;;;12.30
11792;BMP180;5953;52.372;9.918;2023-01-04T09:22:15;100569.00;;;12.30
11792;BMP180;5953;52.372;9.918;2023-01-04T09:25:07;100569.00;;;12.40
11792;BMP180;5953;52.372;9.918;2023-01-04T09:27:38;100550.00;;;12.50
11792;BMP180;5953;52.372;9.918;2023-01-04T09:30:08;100517.00;;;12.00
11792;BMP180;5953;52.372;9.918;2023-01-04T09:32:46;100552.00;;;12.40
11792;BMP180;5953;52.372;9.918;2023-01-04T09:35:33;100534.00;;;11.90
11792;BMP180;5953;52.372;9.918;2023-01-04T09:38:31;100544.00;;;12.10
11792;BMP180;5953;52.372;9.918;2023-01-04T09:41:19;100543.00;;;12.00
11792;BMP180;5953;52.372;9.918;2023-01-04T09:43:50;100529.00;;;12.40
11792;BMP180;5953;52.372;9.918;2023-01-04T09:46:45;100537.00;;;12.10
11792;BMP180;5953;52.372;9.918;2023-01-04T09:50:06;100528.00;;;11.50
11792;BMP180;5953;52.372;9.918;2023-01-04T09:53:39;100485.00;;;12.20
11792;BMP180;5953;52.372;9.918;2023-01-04T09:56:50;100532.00;;;12.20
11792;BMP180;5953;52.372;9.918;2023-01-04T10:00:02;100526.00;;;12.30
11792;BMP180;5953;52.372;9.918;2023-01-04T10:05:42;100500.00;;;12.40
11792;BMP180;5953;52.372;9.918;2023-01-04T10:08:14;100465.00;;;12.50
11792;BMP180;5953;52.372;9.918;2023-01-04T10:10:48;100473.00;;;12.70
11792;BMP180;5953;52.372;9.918;2023-01-04T10:13:34;100463.00;;;12.50
11792;BMP180;5953;52.372;9.918;2023-01-04T10:16:13;100495.00;;;12.40
11792;BMP180;5953;52.372;9.918;2023-01-04T10:18:55;100443.00;;;12.50
11792;BMP180;5953;52.372;9.918;2023-01-04T10:21:48;100458.00;;;12.80
11792;BMP180;5953;52.372;9.918;2023-01-04T10:24:30;100477.00;;;12.60
11792;BMP180;5953;52.372;9.918;2023-01-04T10:27:04;100458.00;;;12.50
11792;BMP180;5953;52.372;9.918;2023-01-04T10:30:00;100473.00;;;13.00
11792;BMP180;5953;52.372;9.918;2023-01-04T10:32:36;100476.00;;;12.70
11792;BMP180;5953;52.372;9.918;2023-01-04T10:35:17;100471.00;;;13.10
11792;BMP180;5953;52.372;9.918;2023-01-04T10:37:48;100454.00;;;13.00
11792;BMP180;5953;52.372;9.918;2023-01-04T10:40:17;100475.00;;;13.20
11792;BMP180;5953;52.372;9.918;2023-01-04T10:42:55;100469.00;;;13.00
11792;BMP180;5953;52.372;9.918;2023-01-04T10:45:32;100470.00;;;13.20
11792;BMP180;5953;52.372;9.918;2023-01-04T10:48:05;100468.00;;;12.60
11792;BMP180;5953;52.372;9.918;2023-01-04T10:50:37;100464.00;;;13.40
11792;BMP180;5953;52.372;9.918;2023-01-04T10:53:26;100458.00;;;13.00
11792;BMP180;5953;52.372;9.918;2023-01-04T10:56:42;100455.00;;;13.10
11792;BMP180;5953;52.372;9.918;2023-01-04T10:59:18;100427.00;;;13.10
11792;BMP180;5953;52.372;9.918;2023-01-04T11:02:31;100444.00;;;13.00
11792;BMP180;5953;52.372;9.918;2023-01-04T11:05:10;100454.00;;;13.30
11792;BMP180;5953;52.372;9.918;2023-01-04T11:07:45;100414.00;;;13.20
11792;BMP180;5953;52.372;9.918;2023-01-04T11:10:19;100450.00;;;13.30
11792;BMP180;5953;52.372;9.918;2023-01-04T11:12:49;100452.00;;;13.20
11792;BMP180;5953;52.372;9.918;2023-01-04T11:15:22;100396.00;;;13.30
11792;BMP180;5953;52.372;9.918;2023-01-04T11:18:03;100405.00;;;13.20
11792;BMP180;5953;52.372;9.918;2023-01-04T11:20:41;100394.00;;;13.20
11792;BMP180;5953;52.372;9.918;2023-01-04T11:23:16;100432.00;;;13.30
11792;BMP180;5953;52.372;9.918;2023-01-04T11:25:51;100416.00;;;13.10
11792;BMP180;5953;52.372;9.918;2023-01-04T11:28:29;100414.00;;;13.30
11792;BMP180;5953;52.372;9.918;2023-01-04T11:31:15;100406.00;;;13.40
11792;BMP180;5953;52.372;9.918;2023-01-04T11:33:55;100418.00;;;13.30
11792;BMP180;5953;52.372;9.918;2023-01-04T11:36:34;100413.00;;;13.40
11792;BMP180;5953;52.372;9.918;2023-01-04T11:39:17;100394.00;;;13.50
11792;BMP180;5953;52.372;9.918;2023-01-04T11:41:53;100413.00;;;13.30
11792;BMP180;5953;52.372;9.918;2023-01-04T11:44:30;100386.00;;;13.50
11792;BMP180;5953;52.372;9.918;2023-01-04T11:47:16;100414.00;;;13.70
11792;BMP180;5953;52.372;9.918;2023-01-04T11:49:48;100412.00;;;13.60
11792;BMP180;5953;52.372;9.918;2023-01-04T11:52:31;100405.00;;;13.50
11792;BMP180;5953;52.372;9.918;2023-01-04T11:55:16;100425.00;;;14.00
11792;BMP180;5953;52.372;9.918;2023-01-04T11:58:04;100385.00;;;13.50
11792;BMP180;5953;52.372;9.918;2023-01-04T12:00:37;100405.00;;;13.70
11792;BMP180;5953;52.372;9.918;2023-01-04T12:03:12;100391.00;;;13.70
11792;BMP180;5953;52.372;9.918;2023-01-04T12:05:50;100383.00;;;13.40
11792;BMP180;5953;52.372;9.918;2023-01-04T12:08:35;100349.00;;;13.50
11792;BMP180;5953;52.372;9.918;2023-01-04T12:11:05;100346.00;;;13.60
11792;BMP180;5953;52.372;9.918;2023-01-04T12:13:38;100346.00;;;13.40
11792;BMP180;5953;52.372;9.918;2023-01-04T12:16:31;100378.00;;;13.70
11792;BMP180;5953;52.372;9.918;2023-01-04T12:19:04;100367.00;;;13.90
11792;BMP180;5953;52.372;9.918;2023-01-04T12:21:34;100322.00;;;14.00
11792;BMP180;5953;52.372;9.918;2023-01-04T12:24:05;100370.00;;;13.80
11792;BMP180;5953;52.372;9.918;2023-01-04T12:26:40;100318.00;;;13.50
11792;BMP180;5953;52.372;9.918;2023-01-04T12:36:57;100280.00;;;13.80
11792;BMP180;5953;52.372;9.918;2023-01-04T12:39:43;100335.00;;;13.90
11792;BMP180;5953;52.372;9.918;2023-01-04T12:42:26;100288.00;;;13.80
11792;BMP180;5953;52.372;9.918;2023-01-04T12:45:20;100316.00;;;13.30
11792;BMP180;5953;52.372;9.918;2023-01-04T12:51:38;100303.00;;;14.00
11792;BMP180;5953;52.372;9.918;2023-01-04T12:54:47;100295.00;;;13.80
11792;BMP180;5953;52.372;9.918;2023-01-04T12:57:47;100302.00;;;13.80
11792;BMP180;5953;52.372;9.918;2023-01-04T13:00:18;100309.00;;;14.00
11792;BMP180;5953;52.372;9.918;2023-01-04T13:05:59;100311.00;;;14.10
11792;BMP180;5953;52.372;9.918;2023-01-04T13:08:38;100264.00;;;14.10
11792;BMP180;5953;52.372;9.918;2023-01-04T13:11:44;100299.00;;;14.10
11792;BMP180;5953;52.372;9.918;2023-01-04T13:14:30;100291.00;;;14.00
11792;BMP180;5953;52.372;9.918;2023-01-04T13:17:16;100298.00;;;14.10
11792;BMP180;5953;52.372;9.918;2023-01-04T13:19:48;100299.00;;;14.40
11792;BMP180;5953;52.372;9.918;2023-01-04T13:22:51;100283.00;;;14.40
11792;BMP180;5953;52.372;9.918;2023-01-04T13:25:35;100298.00;;;14.20
11792;BMP180;5953;52.372;9.918;2023-01-04T13:28:28;100248.00;;;14.30
11792;BMP180;5953;52.372;9.918;2023-01-04T13:31:04;100249.00;;;14.40
11792;BMP180;5953;52.372;9.918;2023-01-04T13:34:04;100283.00;;;14.40
11792;BMP180;5953;52.372;9.918;2023-01-04T13:36:42;100283.00;;;14.30
11792;BMP180;5953;52.372;9.918;2023-01-04T13:39:30;100274.00;;;14.70
11792;BMP180;5953;52.372;9.918;2023-01-04T13:42:23;100275.00;;;14.30
11792;BMP180;5953;52.372;9.918;2023-01-04T13:45:25;100263.00;;;14.50
11792;BMP180;5953;52.372;9.918;2023-01-04T13:48:09;100244.00;;;14.40
11792;BMP180;5953;52.372;9.918;2023-01-04T13:50:42;100233.00;;;14.30
11792;BMP180;5953;52.372;9.918;2023-01-04T13:53:23;100261.00;;;14.50
11792;BMP180;5953;52.372;9.918;2023-01-04T13:55:53;100244.00;;;14.70
11792;BMP180;5953;52.372;9.918;2023-01-04T13:58:26;100254.00;;;14.70
11792;BMP180;5953;52.372;9.918;2023-01-04T14:01:16;100263.00;;;14.50
11792;BMP180;5953;52.372;9.918;2023-01-04T14:03:59;100250.00;;;14.80
11792;BMP180;5953;52.372;9.918;2023-01-04T14:06:33;100228.00;;;14.80
11792;BMP180;5953;52.372;9.918;2023-01-04T14:09:24;100237.00;;;14.80
11792;BMP180;5953;52.372;9.918;2023-01-04T14:12:07;100192.00;;;14.70
11792;BMP180;5953;52.372;9.918;2023-01-04T14:14:50;100209.00;;;14.60
11792;BMP180;5953;52.372;9.918;2023-01-04T14:17:31;100212.00;;;14.70
11792;BMP180;5953;52.372;9.918;2023-01-04T14:20:02;100203.00;;;14.70
11792;BMP180;5953;52.372;9.918;2023-01-04T14:22:41;100219.00;;;14.70
11792;BMP180;5953;52.372;9.918;2023-01-04T14:29:33;100161.00;;;14.70
11792;BMP180;5953;52.372;9.918;2023-01-04T14:33:00;100176.00;;;14.70
11792;BMP180;5953;52.372;9.918;2023-01-04T14:40:13;100225.00;;;14.80
11792;BMP180;5953;52.372;9.918;2023-01-04T14:42:42;100188.00;;;14.90
11792;BMP180;5953;52.372;9.918;2023-01-04T14:45:30;100215.00;;;14.80
11792;BMP180;5953;52.372;9.918;2023-01-04T14:48:03;100200.00;;;14.70
11792;BMP180;5953;52.372;9.918;2023-01-04T14:50:45;100201.00;;;14.50
11792;BMP180;5953;52.372;9.918;2023-01-04T14:53:18;100155.00;;;14.70
11792;BMP180;5953;52.372;9.918;2023-01-04T14:55:53;100205.00;;;14.70
11792;BMP180;5953;52.372;9.918;2023-01-04T14:58:22;100209.00;;;14.40
11792;BMP180;5953;52.372;9.918;2023-01-04T15:00:55;100177.00;;;14.40
11792;BMP180;5953;52.372;9.918;2023-01-04T15:03:24;100195.00;;;14.90
11792;BMP180;5953;52.372;9.918;2023-01-04T15:05:56;100203.00;;;14.90
11792;BMP180;5953;52.372;9.918;2023-01-04T15:08:50;100210.00;;;14.60
11792;BMP180;5953;52.372;9.918;2023-01-04T15:11:42;100208.00;;;14.80
11792;BMP180;5953;52.372;9.918;2023-01-04T15:14:36;100212.00;;;14.60
11792;BMP180;5953;52.372;9.918;2023-01-04T15:17:26;100203.00;;;14.70
11792;BMP180;5953;52.372;9.918;2023-01-04T15:19:56;100217.00;;;14.90
11792;BMP180;5953;52.372;9.918;2023-01-04T15:22:30;100210.00;;;15.20
11792;BMP180;5953;52.372;9.918;2023-01-04T15:25:57;100218.00;;;15.00
11792;BMP180;5953;52.372;9.918;2023-01-04T15:29:10;100193.00;;;15.20
11792;BMP180;5953;52.372;9.918;2023-01-04T15:37:02;100213.00;;;15.20
11792;BMP180;5953;52.372;9.918;2023-01-04T15:39:39;100189.00;;;15.30
11792;BMP180;5953;52.372;9.918;2023-01-04T15:42:37;100189.00;;;15.30
11792;BMP180;5953;52.372;9.918;2023-01-04T15:45:50;100182.00;;;15.30
11792;BMP180;5953;52.372;9.918;2023-01-04T15:48:26;100195.00;;;15.50
11792;BMP180;5953;52.372;9.918;2023-01-04T15:51:22;100149.00;;;15.50
11792;BMP180;5953;52.372;9.918;2023-01-04T15:54:24;100175.00;;;15.80
11792;BMP180;5953;52.372;9.918;2023-01-04T15:56:57;100201.00;;;15.60
11792;BMP180;5953;52.372;9.918;2023-01-04T16:00:07;100206.00;;;15.40
11792;BMP180;5953;52.372;9.918;2023-01-04T16:02:46;100146.00;;;15.70
11792;BMP180;5953;52.372;9.918;2023-01-04T16:05:36;100181.00;;;15.80